sensor_id;sensor_type;location;lat;lon;timestamp;temperature;humidity
2112;DHT22;1062;52.538;13.400;2023-05-27T00:01:48;10.80;99.90
2112;DHT22;1062;52.538;13.400;2023-05-27T00:04:14;10.70;99.90
2112;DHT22;1062;52.538;13.400;2023-05-27T00:06:39;10.80;99.90
2112;DHT22;1062;52.538;13.400;2023-05-27T00:09:05;10.70;99.90
2112;DHT22;1062;52.538;13.400;2023-05-27T00:11:31;10.70;99.90
2112;DHT22;1062;52.538;13.400;2023-05-27T00:13:56;10.70;99.90
2112;DHT22;1062;52.538;13.400;2023-05-27T00:16:22;10.60;99.90
2112;DHT22;1062;52.538;13.400;2023-05-27T00:18:48;10.70;99.90
2112;DHT22;1062;52.538;13.400;2023-05-27T00:21:14;10.60;99.90
2112;DHT22;1062;52.538;13.400;2023-05-27T00:23:44;10.60;99.90
2112;DHT22;1062;52.538;13.400;2023-05-27T00:26:09;10.50;99.90
2112;DHT22;1062;52.538;13.400;2023-05-27T00:28:35;10.50;99.90
2112;DHT22;1062;52.538;13.400;2023-05-27T00:31:01;10.40;99.90
2112;DHT22;1062;52.538;13.400;2023-05-27T00:33:26;10.50;99.90
2112;DHT22;1062;52.538;13.400;2023-05-27T00:35:52;10.40;99.90
2112;DHT22;1062;52.538;13.400;2023-05-27T00:38:18;10.40;99.90
2112;DHT22;1062;52.538;13.400;2023-05-27T00:40:43;10.40;99.90
2112;DHT22;1062;52.538;13.400;2023-05-27T00:43:09;10.30;99.90
2112;DHT22;1062;52.538;13.400;2023-05-27T00:45:35;10.30;99.90
2112;DHT22;1062;52.538;13.400;2023-05-27T00:48:02;10.40;99.90
2112;DHT22;1062;52.538;13.400;2023-05-27T00:50:28;10.30;99.90
2112;DHT22;1062;52.538;13.400;2023-05-27T00:52:54;10.30;99.90
2112;DHT22;1062;52.538;13.400;2023-05-27T00:55:24;10.30;99.90
2112;DHT22;1062;52.538;13.400;2023-05-27T00:57:49;10.20;99.90
2112;DHT22;1062;52.538;13.400;2023-05-27T01:00:16;10.20;99.90
2112;DHT22;1062;52.538;13.400;2023-05-27T01:02:42;10.10;99.90
2112;DHT22;1062;52.538;13.400;2023-05-27T01:05:09;10.10;99.90
2112;DHT22;1062;52.538;13.400;2023-05-27T01:10:42;10.10;99.90
2112;DHT22;1062;52.538;13.400;2023-05-27T01:16:02;10.00;99.90
2112;DHT22;1062;52.538;13.400;2023-05-27T01:18:31;9.90;99.90
2112;DHT22;1062;52.538;13.400;2023-05-27T01:21:12;9.90;99.90
2112;DHT22;1062;52.538;13.400;2023-05-27T01:23:38;9.90;99.90
2112;DHT22;1062;52.538;13.400;2023-05-27T01:26:06;9.90;99.90
2112;DHT22;1062;52.538;13.400;2023-05-27T01:28:32;9.90;99.90
2112;DHT22;1062;52.538;13.400;2023-05-27T01:31:15;9.90;99.90
2112;DHT22;1062;52.538;13.400;2023-05-27T01:33:55;9.90;99.90
2112;DHT22;1062;52.538;13.400;2023-05-27T01:36:26;9.90;99.90
2112;DHT22;1062;52.538;13.400;2023-05-27T01:38:55;9.90;99.90
2112;DHT22;1062;52.538;13.400;2023-05-27T01:41:22;9.90;99.90
2112;DHT22;1062;52.538;13.400;2023-05-27T01:43:49;9.90;99.90
2112;DHT22;1062;52.538;13.400;2023-05-27T01:46:15;9.80;99.90
2112;DHT22;1062;52.538;13.400;2023-05-27T01:48:41;9.80;99.90
2112;DHT22;1062;52.538;13.400;2023-05-27T01:51:06;9.70;99.90
2112;DHT22;1062;52.538;13.400;2023-05-27T01:53:32;9.70;99.90
2112;DHT22;1062;52.538;13.400;2023-05-27T01:55:58;9.70;99.90
2112;DHT22;1062;52.538;13.400;2023-05-27T01:58:23;9.70;99.90
2112;DHT22;1062;52.538;13.400;2023-05-27T02:00:49;9.60;99.90
2112;DHT22;1062;52.538;13.400;2023-05-27T02:03:15;9.60;99.90
2112;DHT22;1062;52.538;13.400;2023-05-27T02:05:41;9.60;99.90
2112;DHT22;1062;52.538;13.400;2023-05-27T02:08:07;9.60;99.90
2112;DHT22;1062;52.538;13.400;2023-05-27T02:10:33;9.50;99.90
2112;DHT22;1062;52.538;13.400;2023-05-27T02:12:58;9.50;99.90
2112;DHT22;1062;52.538;13.400;2023-05-27T02:15:24;9.40;99.90
2112;DHT22;1062;52.538;13.400;2023-05-27T02:17:51;9.40;99.90
2112;DHT22;1062;52.538;13.400;2023-05-27T02:20:21;9.40;99.90
2112;DHT22;1062;52.538;13.400;2023-05-27T02:25:13;9.20;99.90
2112;DHT22;1062;52.538;13.400;2023-05-27T02:27:42;9.20;99.90
2112;DHT22;1062;52.538;13.400;2023-05-27T02:30:16;9.20;99.90
2112;DHT22;1062;52.538;13.400;2023-05-27T02:32:42;9.30;99.90
2112;DHT22;1062;52.538;13.400;2023-05-27T02:35:09;9.20;99.90
2112;DHT22;1062;52.538;13.400;2023-05-27T02:37:35;9.20;99.90
2112;DHT22;1062;52.538;13.400;2023-05-27T02:40:01;9.30;99.90
2112;DHT22;1062;52.538;13.400;2023-05-27T02:42:26;9.30;99.90
2112;DHT22;1062;52.538;13.400;2023-05-27T02:44:52;9.20;99.90
2112;DHT22;1062;52.538;13.400;2023-05-27T02:47:18;9.20;99.90
2112;DHT22;1062;52.538;13.400;2023-05-27T02:49:44;9.20;99.90
2112;DHT22;1062;52.538;13.400;2023-05-27T02:52:10;9.30;99.90
2112;DHT22;1062;52.538;13.400;2023-05-27T02:54:35;9.20;99.90
2112;DHT22;1062;52.538;13.400;2023-05-27T02:57:01;9.10;99.90
2112;DHT22;1062;52.538;13.400;2023-05-27T02:59:27;9.20;99.90
2112;DHT22;1062;52.538;13.400;2023-05-27T03:01:52;9.20;99.90
2112;DHT22;1062;52.538;13.400;2023-05-27T03:04:18;9.20;99.90
2112;DHT22;1062;52.538;13.400;2023-05-27T03:06:43;9.10;99.90
2112;DHT22;1062;52.538;13.400;2023-05-27T03:09:09;9.10;99.90
2112;DHT22;1062;52.538;13.400;2023-05-27T03:11:35;9.20;99.90
2112;DHT22;1062;52.538;13.400;2023-05-27T03:14:00;9.20;99.90
2112;DHT22;1062;52.538;13.400;2023-05-27T03:16:26;9.20;99.90
2112;DHT22;1062;52.538;13.400;2023-05-27T03:18:51;9.20;99.90
2112;DHT22;1062;52.538;13.400;2023-05-27T03:21:17;9.30;99.90
2112;DHT22;1062;52.538;13.400;2023-05-27T03:23:43;9.30;99.90
2112;DHT22;1062;52.538;13.400;2023-05-27T03:26:09;9.30;99.90
2112;DHT22;1062;52.538;13.400;2023-05-27T03:28:34;9.30;99.90
2112;DHT22;1062;52.538;13.400;2023-05-27T03:31:00;9.40;99.90
2112;DHT22;1062;52.538;13.400;2023-05-27T03:33:25;9.40;99.90
2112;DHT22;1062;52.538;13.400;2023-05-27T03:35:51;9.40;99.90
2112;DHT22;1062;52.538;13.400;2023-05-27T03:38:18;9.40;99.90
2112;DHT22;1062;52.538;13.400;2023-05-27T03:40:43;9.40;99.90
2112;DHT22;1062;52.538;13.400;2023-05-27T03:43:09;9.50;99.90
2112;DHT22;1062;52.538;13.400;2023-05-27T03:45:35;9.50;99.90
2112;DHT22;1062;52.538;13.400;2023-05-27T03:48:00;9.50;99.90
2112;DHT22;1062;52.538;13.400;2023-05-27T03:50:26;9.60;99.90
2112;DHT22;1062;52.538;13.400;2023-05-27T03:52:51;9.60;99.90
2112;DHT22;1062;52.538;13.400;2023-05-27T03:55:17;9.60;99.90
2112;DHT22;1062;52.538;13.400;2023-05-27T03:57:43;9.70;99.90
2112;DHT22;1062;52.538;13.400;2023-05-27T04:00:09;9.80;99.90
2112;DHT22;1062;52.538;13.400;2023-05-27T04:02:38;9.80;99.90
2112;DHT22;1062;52.538;13.400;2023-05-27T04:05:04;9.90;99.90
2112;DHT22;1062;52.538;13.400;2023-05-27T04:07:30;9.90;99.90
2112;DHT22;1062;52.538;13.400;2023-05-27T04:09:57;9.90;99.90
2112;DHT22;1062;52.538;13.400;2023-05-27T04:12:23;9.90;99.90
2112;DHT22;1062;52.538;13.400;2023-05-27T04:14:49;10.00;99.90
2112;DHT22;1062;52.538;13.400;2023-05-27T04:17:15;10.10;99.90
2112;DHT22;1062;52.538;13.400;2023-05-27T04:19:40;10.20;99.90
2112;DHT22;1062;52.538;13.400;2023-05-27T04:22:07;10.20;99.90
2112;DHT22;1062;52.538;13.400;2023-05-27T04:24:32;10.50;99.90
2112;DHT22;1062;52.538;13.400;2023-05-27T04:26:58;10.90;99.90
2112;DHT22;1062;52.538;13.400;2023-05-27T04:29:24;11.40;99.90
2112;DHT22;1062;52.538;13.400;2023-05-27T04:31:50;11.80;99.90
2112;DHT22;1062;52.538;13.400;2023-05-27T04:34:16;12.40;99.90
2112;DHT22;1062;52.538;13.400;2023-05-27T04:36:42;12.50;99.90
2112;DHT22;1062;52.538;13.400;2023-05-27T04:39:09;12.20;99.90
2112;DHT22;1062;52.538;13.400;2023-05-27T04:41:36;12.00;99.90
2112;DHT22;1062;52.538;13.400;2023-05-27T04:44:05;11.80;99.90
2112;DHT22;1062;52.538;13.400;2023-05-27T04:46:30;11.80;99.90
2112;DHT22;1062;52.538;13.400;2023-05-27T04:48:56;11.80;99.90
2112;DHT22;1062;52.538;13.400;2023-05-27T04:51:22;11.90;99.90
2112;DHT22;1062;52.538;13.400;2023-05-27T04:53:48;11.90;99.90
2112;DHT22;1062;52.538;13.400;2023-05-27T04:56:15;12.20;99.90
2112;DHT22;1062;52.538;13.400;2023-05-27T04:58:41;12.80;99.90
2112;DHT22;1062;52.538;13.400;2023-05-27T05:01:09;13.50;99.90
2112;DHT22;1062;52.538;13.400;2023-05-27T05:03:43;13.90;99.90
2112;DHT22;1062;52.538;13.400;2023-05-27T05:06:21;14.00;99.90
2112;DHT22;1062;52.538;13.400;2023-05-27T05:08:48;14.30;99.90
2112;DHT22;1062;52.538;13.400;2023-05-27T05:11:13;14.10;99.90
2112;DHT22;1062;52.538;13.400;2023-05-27T05:13:39;14.20;99.90
2112;DHT22;1062;52.538;13.400;2023-05-27T05:16:05;14.30;99.90
2112;DHT22;1062;52.538;13.400;2023-05-27T05:18:31;14.30;99.90
2112;DHT22;1062;52.538;13.400;2023-05-27T05:20:57;15.20;99.90
2112;DHT22;1062;52.538;13.400;2023-05-27T05:23:22;15.80;99.90
2112;DHT22;1062;52.538;13.400;2023-05-27T05:25:48;15.80;99.90
2112;DHT22;1062;52.538;13.400;2023-05-27T05:28:20;15.60;99.90
2112;DHT22;1062;52.538;13.400;2023-05-27T05:30:45;15.60;99.90
2112;DHT22;1062;52.538;13.400;2023-05-27T05:33:11;15.40;99.90
2112;DHT22;1062;52.538;13.400;2023-05-27T05:35:37;15.90;99.90
2112;DHT22;1062;52.538;13.400;2023-05-27T05:38:02;17.00;99.90
2112;DHT22;1062;52.538;13.400;2023-05-27T05:40:28;17.40;99.90
2112;DHT22;1062;52.538;13.400;2023-05-27T05:42:53;16.80;99.90
2112;DHT22;1062;52.538;13.400;2023-05-27T05:45:19;16.90;99.90
2112;DHT22;1062;52.538;13.400;2023-05-27T05:47:45;17.10;99.90
2112;DHT22;1062;52.538;13.400;2023-05-27T05:50:10;17.20;99.90
2112;DHT22;1062;52.538;13.400;2023-05-27T05:52:36;17.00;99.90
2112;DHT22;1062;52.538;13.400;2023-05-27T05:55:01;16.40;99.90
2112;DHT22;1062;52.538;13.400;2023-05-27T05:57:27;16.80;99.90
2112;DHT22;1062;52.538;13.400;2023-05-27T05:59:58;17.30;99.90
2112;DHT22;1062;52.538;13.400;2023-05-27T06:02:23;18.20;99.90
2112;DHT22;1062;52.538;13.400;2023-05-27T06:04:50;18.50;99.90
2112;DHT22;1062;52.538;13.400;2023-05-27T06:07:16;18.70;99.90
2112;DHT22;1062;52.538;13.400;2023-05-27T06:09:42;19.10;99.90
2112;DHT22;1062;52.538;13.400;2023-05-27T06:12:07;18.30;99.90
2112;DHT22;1062;52.538;13.400;2023-05-27T06:14:33;19.10;99.90
2112;DHT22;1062;52.538;13.400;2023-05-27T06:16:59;19.60;99.90
2112;DHT22;1062;52.538;13.400;2023-05-27T06:19:24;19.80;99.90
2112;DHT22;1062;52.538;13.400;2023-05-27T06:21:50;19.80;99.50
2112;DHT22;1062;52.538;13.400;2023-05-27T06:24:16;20.10;97.50
2112;DHT22;1062;52.538;13.400;2023-05-27T06:26:42;19.80;95.40
2112;DHT22;1062;52.538;13.400;2023-05-27T06:29:07;20.40;93.00
2112;DHT22;1062;52.538;13.400;2023-05-27T06:31:33;20.70;93.10
2112;DHT22;1062;52.538;13.400;2023-05-27T06:33:59;20.80;92.20
2112;DHT22;1062;52.538;13.400;2023-05-27T06:36:25;21.40;89.00
2112;DHT22;1062;52.538;13.400;2023-05-27T06:38:50;20.90;89.90
2112;DHT22;1062;52.538;13.400;2023-05-27T06:41:17;21.50;85.90
2112;DHT22;1062;52.538;13.400;2023-05-27T06:43:42;21.20;90.10
2112;DHT22;1062;52.538;13.400;2023-05-27T06:46:08;21.70;88.70
2112;DHT22;1062;52.538;13.400;2023-05-27T06:48:33;22.90;80.40
2112;DHT22;1062;52.538;13.400;2023-05-27T06:50:59;21.70;79.60
2112;DHT22;1062;52.538;13.400;2023-05-27T06:53:25;21.00;83.60
2112;DHT22;1062;52.538;13.400;2023-05-27T06:55:51;22.30;81.20
2112;DHT22;1062;52.538;13.400;2023-05-27T06:58:16;21.90;79.70
2112;DHT22;1062;52.538;13.400;2023-05-27T07:00:42;22.90;78.30
2112;DHT22;1062;52.538;13.400;2023-05-27T07:03:08;22.50;73.90
2112;DHT22;1062;52.538;13.400;2023-05-27T07:05:33;21.40;76.30
2112;DHT22;1062;52.538;13.400;2023-05-27T07:07:59;21.30;77.80
2112;DHT22;1062;52.538;13.400;2023-05-27T07:10:25;21.00;75.70
2112;DHT22;1062;52.538;13.400;2023-05-27T07:12:51;21.10;77.40
2112;DHT22;1062;52.538;13.400;2023-05-27T07:15:16;22.40;74.40
2112;DHT22;1062;52.538;13.400;2023-05-27T07:17:42;22.50;72.80
2112;DHT22;1062;52.538;13.400;2023-05-27T07:20:08;22.50;72.10
2112;DHT22;1062;52.538;13.400;2023-05-27T07:22:34;22.50;76.30
2112;DHT22;1062;52.538;13.400;2023-05-27T07:24:59;23.10;75.80
2112;DHT22;1062;52.538;13.400;2023-05-27T07:27:25;22.40;75.90
2112;DHT22;1062;52.538;13.400;2023-05-27T07:29:51;23.70;68.40
2112;DHT22;1062;52.538;13.400;2023-05-27T07:32:16;24.50;66.90
2112;DHT22;1062;52.538;13.400;2023-05-27T07:34:42;24.90;63.90
2112;DHT22;1062;52.538;13.400;2023-05-27T07:37:08;22.60;66.30
2112;DHT22;1062;52.538;13.400;2023-05-27T07:39:33;21.70;66.00
2112;DHT22;1062;52.538;13.400;2023-05-27T07:41:59;22.80;65.70
2112;DHT22;1062;52.538;13.400;2023-05-27T07:44:24;23.70;63.40
2112;DHT22;1062;52.538;13.400;2023-05-27T07:46:52;24.90;59.20
2112;DHT22;1062;52.538;13.400;2023-05-27T07:49:17;23.00;60.10
2112;DHT22;1062;52.538;13.400;2023-05-27T07:51:43;22.50;60.90
2112;DHT22;1062;52.538;13.400;2023-05-27T07:54:09;22.00;62.80
2112;DHT22;1062;52.538;13.400;2023-05-27T07:56:34;22.60;63.60
2112;DHT22;1062;52.538;13.400;2023-05-27T07:59:00;22.00;65.00
2112;DHT22;1062;52.538;13.400;2023-05-27T08:01:26;23.90;58.90
2112;DHT22;1062;52.538;13.400;2023-05-27T08:03:56;23.20;58.80
2112;DHT22;1062;52.538;13.400;2023-05-27T08:06:21;22.70;63.10
2112;DHT22;1062;52.538;13.400;2023-05-27T08:08:47;24.20;57.50
2112;DHT22;1062;52.538;13.400;2023-05-27T08:11:13;23.10;57.00
2112;DHT22;1062;52.538;13.400;2023-05-27T08:13:39;23.40;59.40
2112;DHT22;1062;52.538;13.400;2023-05-27T08:16:04;21.90;62.30
2112;DHT22;1062;52.538;13.400;2023-05-27T08:18:30;21.30;64.30
2112;DHT22;1062;52.538;13.400;2023-05-27T08:20:55;21.40;65.00
2112;DHT22;1062;52.538;13.400;2023-05-27T08:23:21;23.20;62.30
2112;DHT22;1062;52.538;13.400;2023-05-27T08:25:47;22.30;60.50
2112;DHT22;1062;52.538;13.400;2023-05-27T08:28:12;21.60;61.60
2112;DHT22;1062;52.538;13.400;2023-05-27T08:30:38;21.90;58.80
2112;DHT22;1062;52.538;13.400;2023-05-27T08:33:04;22.30;57.30
2112;DHT22;1062;52.538;13.400;2023-05-27T08:35:30;21.80;57.70
2112;DHT22;1062;52.538;13.400;2023-05-27T08:37:56;22.00;57.70
2112;DHT22;1062;52.538;13.400;2023-05-27T08:40:22;23.20;57.40
2112;DHT22;1062;52.538;13.400;2023-05-27T08:42:47;24.00;56.10
2112;DHT22;1062;52.538;13.400;2023-05-27T08:45:14;23.20;55.40
2112;DHT22;1062;52.538;13.400;2023-05-27T08:47:40;24.20;55.60
2112;DHT22;1062;52.538;13.400;2023-05-27T08:50:06;23.30;58.60
2112;DHT22;1062;52.538;13.400;2023-05-27T08:52:33;23.90;56.00
2112;DHT22;1062;52.538;13.400;2023-05-27T08:55:00;24.70;53.30
2112;DHT22;1062;52.538;13.400;2023-05-27T08:57:30;23.30;54.30
2112;DHT22;1062;52.538;13.400;2023-05-27T08:59:57;23.30;54.70
2112;DHT22;1062;52.538;13.400;2023-05-27T09:02:23;22.70;55.60
2112;DHT22;1062;52.538;13.400;2023-05-27T09:04:50;24.20;55.90
2112;DHT22;1062;52.538;13.400;2023-05-27T09:07:16;23.80;54.70
2112;DHT22;1062;52.538;13.400;2023-05-27T09:09:49;23.10;56.00
2112;DHT22;1062;52.538;13.400;2023-05-27T09:12:24;23.60;56.10
2112;DHT22;1062;52.538;13.400;2023-05-27T09:14:51;23.80;52.70
2112;DHT22;1062;52.538;13.400;2023-05-27T09:17:16;23.70;53.40
2112;DHT22;1062;52.538;13.400;2023-05-27T09:19:44;23.10;55.30
2112;DHT22;1062;52.538;13.400;2023-05-27T09:22:25;23.80;54.80
2112;DHT22;1062;52.538;13.400;2023-05-27T09:24:54;24.00;54.20
2112;DHT22;1062;52.538;13.400;2023-05-27T09:27:28;23.50;53.80
2112;DHT22;1062;52.538;13.400;2023-05-27T09:29:54;23.50;55.80
2112;DHT22;1062;52.538;13.400;2023-05-27T09:34:50;24.30;53.30
2112;DHT22;1062;52.538;13.400;2023-05-27T09:37:17;24.80;52.70
2112;DHT22;1062;52.538;13.400;2023-05-27T09:39:44;24.10;53.20
2112;DHT22;1062;52.538;13.400;2023-05-27T09:42:10;24.90;50.60
2112;DHT22;1062;52.538;13.400;2023-05-27T09:44:36;24.60;50.30
2112;DHT22;1062;52.538;13.400;2023-05-27T09:47:08;24.90;50.70
2112;DHT22;1062;52.538;13.400;2023-05-27T09:49:37;24.40;50.50
2112;DHT22;1062;52.538;13.400;2023-05-27T09:52:05;24.00;50.70
2112;DHT22;1062;52.538;13.400;2023-05-27T09:54:32;23.20;51.70
2112;DHT22;1062;52.538;13.400;2023-05-27T09:56:58;24.00;52.50
2112;DHT22;1062;52.538;13.400;2023-05-27T09:59:24;24.40;52.10
2112;DHT22;1062;52.538;13.400;2023-05-27T10:01:50;23.70;51.60
2112;DHT22;1062;52.538;13.400;2023-05-27T10:04:17;23.50;51.10
2112;DHT22;1062;52.538;13.400;2023-05-27T10:06:44;23.10;51.30
2112;DHT22;1062;52.538;13.400;2023-05-27T10:09:10;23.10;52.50
2112;DHT22;1062;52.538;13.400;2023-05-27T10:11:40;22.70;52.40
2112;DHT22;1062;52.538;13.400;2023-05-27T10:14:06;22.60;52.50
2112;DHT22;1062;52.538;13.400;2023-05-27T10:16:32;21.50;52.20
2112;DHT22;1062;52.538;13.400;2023-05-27T10:19:00;21.90;52.80
2112;DHT22;1062;52.538;13.400;2023-05-27T10:21:28;21.30;53.30
2112;DHT22;1062;52.538;13.400;2023-05-27T10:24:01;22.00;52.40
2112;DHT22;1062;52.538;13.400;2023-05-27T10:26:39;21.70;53.60
2112;DHT22;1062;52.538;13.400;2023-05-27T10:29:15;21.40;53.30
2112;DHT22;1062;52.538;13.400;2023-05-27T10:31:47;20.80;56.40
2112;DHT22;1062;52.538;13.400;2023-05-27T10:34:13;20.70;56.40
2112;DHT22;1062;52.538;13.400;2023-05-27T10:36:39;20.80;55.00
2112;DHT22;1062;52.538;13.400;2023-05-27T10:39:06;21.30;55.10
2112;DHT22;1062;52.538;13.400;2023-05-27T10:41:54;21.00;55.00
2112;DHT22;1062;52.538;13.400;2023-05-27T10:44:33;21.00;55.70
2112;DHT22;1062;52.538;13.400;2023-05-27T10:47:03;20.70;54.90
2112;DHT22;1062;52.538;13.400;2023-05-27T10:49:34;20.40;55.50
2112;DHT22;1062;52.538;13.400;2023-05-27T10:52:14;20.80;55.40
2112;DHT22;1062;52.538;13.400;2023-05-27T10:54:45;20.80;55.00
2112;DHT22;1062;52.538;13.400;2023-05-27T10:57:12;20.80;55.00
2112;DHT22;1062;52.538;13.400;2023-05-27T10:59:51;20.40;56.30
2112;DHT22;1062;52.538;13.400;2023-05-27T11:02:18;20.10;56.50
2112;DHT22;1062;52.538;13.400;2023-05-27T11:04:44;20.10;56.20
2112;DHT22;1062;52.538;13.400;2023-05-27T11:07:10;20.30;56.00
2112;DHT22;1062;52.538;13.400;2023-05-27T11:09:52;20.30;56.40
2112;DHT22;1062;52.538;13.400;2023-05-27T11:12:23;20.50;56.70
2112;DHT22;1062;52.538;13.400;2023-05-27T11:14:51;20.70;58.60
2112;DHT22;1062;52.538;13.400;2023-05-27T11:17:18;20.60;56.40
2112;DHT22;1062;52.538;13.400;2023-05-27T11:19:44;20.10;56.50
2112;DHT22;1062;52.538;13.400;2023-05-27T11:22:15;20.20;56.20
2112;DHT22;1062;52.538;13.400;2023-05-27T11:24:41;20.30;57.00
2112;DHT22;1062;52.538;13.400;2023-05-27T11:27:14;20.70;56.40
2112;DHT22;1062;52.538;13.400;2023-05-27T11:29:51;20.50;57.10
2112;DHT22;1062;52.538;13.400;2023-05-27T11:32:17;20.40;57.00
2112;DHT22;1062;52.538;13.400;2023-05-27T11:34:44;20.30;57.00
2112;DHT22;1062;52.538;13.400;2023-05-27T11:37:11;20.10;56.90
2112;DHT22;1062;52.538;13.400;2023-05-27T11:39:37;20.20;57.30
2112;DHT22;1062;52.538;13.400;2023-05-27T11:42:08;20.40;57.40
2112;DHT22;1062;52.538;13.400;2023-05-27T11:44:34;20.30;57.00
2112;DHT22;1062;52.538;13.400;2023-05-27T11:47:00;20.20;57.60
2112;DHT22;1062;52.538;13.400;2023-05-27T11:49:27;20.60;57.80
2112;DHT22;1062;52.538;13.400;2023-05-27T11:51:57;20.50;57.60
2112;DHT22;1062;52.538;13.400;2023-05-27T11:54:29;20.50;57.90
2112;DHT22;1062;52.538;13.400;2023-05-27T11:56:56;20.50;57.70
2112;DHT22;1062;52.538;13.400;2023-05-27T11:59:24;20.50;56.70
2112;DHT22;1062;52.538;13.400;2023-05-27T12:01:51;20.50;56.90
2112;DHT22;1062;52.538;13.400;2023-05-27T12:04:17;20.50;57.90
2112;DHT22;1062;52.538;13.400;2023-05-27T12:06:45;20.60;57.10
2112;DHT22;1062;52.538;13.400;2023-05-27T12:09:11;20.40;57.00
2112;DHT22;1062;52.538;13.400;2023-05-27T12:11:37;20.20;57.40
2112;DHT22;1062;52.538;13.400;2023-05-27T12:14:03;20.40;57.30
2112;DHT22;1062;52.538;13.400;2023-05-27T12:16:29;20.30;56.20
2112;DHT22;1062;52.538;13.400;2023-05-27T12:18:55;20.30;56.20
2112;DHT22;1062;52.538;13.400;2023-05-27T12:21:21;20.50;56.30
2112;DHT22;1062;52.538;13.400;2023-05-27T12:23:47;20.50;56.80
2112;DHT22;1062;52.538;13.400;2023-05-27T12:26:14;20.70;56.20
2112;DHT22;1062;52.538;13.400;2023-05-27T12:28:40;20.60;56.00
2112;DHT22;1062;52.538;13.400;2023-05-27T12:31:07;20.70;55.60
2112;DHT22;1062;52.538;13.400;2023-05-27T12:33:33;20.70;55.40
2112;DHT22;1062;52.538;13.400;2023-05-27T12:35:59;20.50;55.40
2112;DHT22;1062;52.538;13.400;2023-05-27T12:38:25;20.50;55.50
2112;DHT22;1062;52.538;13.400;2023-05-27T12:40:51;20.60;55.50
2112;DHT22;1062;52.538;13.400;2023-05-27T12:43:18;20.80;55.80
2112;DHT22;1062;52.538;13.400;2023-05-27T12:45:44;20.80;55.00
2112;DHT22;1062;52.538;13.400;2023-05-27T12:48:11;21.00;54.80
2112;DHT22;1062;52.538;13.400;2023-05-27T12:50:36;21.00;54.80
2112;DHT22;1062;52.538;13.400;2023-05-27T12:53:02;20.80;55.20
2112;DHT22;1062;52.538;13.400;2023-05-27T12:55:28;20.80;55.50
2112;DHT22;1062;52.538;13.400;2023-05-27T12:57:55;20.70;55.10
2112;DHT22;1062;52.538;13.400;2023-05-27T13:00:21;20.70;55.00
2112;DHT22;1062;52.538;13.400;2023-05-27T13:02:47;20.80;54.70
2112;DHT22;1062;52.538;13.400;2023-05-27T13:05:14;20.80;54.70
2112;DHT22;1062;52.538;13.400;2023-05-27T13:07:40;20.80;55.10
2112;DHT22;1062;52.538;13.400;2023-05-27T13:10:12;20.90;55.50
2112;DHT22;1062;52.538;13.400;2023-05-27T13:12:43;20.80;54.80
2112;DHT22;1062;52.538;13.400;2023-05-27T13:15:10;20.80;54.50
2112;DHT22;1062;52.538;13.400;2023-05-27T13:17:35;20.80;54.00
2112;DHT22;1062;52.538;13.400;2023-05-27T13:20:01;20.80;54.20
2112;DHT22;1062;52.538;13.400;2023-05-27T13:22:28;20.90;54.50
2112;DHT22;1062;52.538;13.400;2023-05-27T13:24:54;20.90;54.60
2112;DHT22;1062;52.538;13.400;2023-05-27T13:27:19;20.90;53.90
2112;DHT22;1062;52.538;13.400;2023-05-27T13:29:45;20.70;54.50
2112;DHT22;1062;52.538;13.400;2023-05-27T13:32:11;20.80;55.30
2112;DHT22;1062;52.538;13.400;2023-05-27T13:34:36;20.90;55.90
2112;DHT22;1062;52.538;13.400;2023-05-27T13:37:02;20.70;55.90
2112;DHT22;1062;52.538;13.400;2023-05-27T13:39:28;21.10;56.20
2112;DHT22;1062;52.538;13.400;2023-05-27T13:41:55;21.20;55.80
2112;DHT22;1062;52.538;13.400;2023-05-27T13:44:20;21.20;55.90
2112;DHT22;1062;52.538;13.400;2023-05-27T13:46:46;21.20;55.70
2112;DHT22;1062;52.538;13.400;2023-05-27T13:49:11;21.30;55.20
2112;DHT22;1062;52.538;13.400;2023-05-27T13:51:44;21.30;55.60
2112;DHT22;1062;52.538;13.400;2023-05-27T13:54:10;21.40;54.80
2112;DHT22;1062;52.538;13.400;2023-05-27T13:56:36;21.40;54.70
2112;DHT22;1062;52.538;13.400;2023-05-27T13:59:02;21.40;54.70
2112;DHT22;1062;52.538;13.400;2023-05-27T14:01:31;21.60;54.70
2112;DHT22;1062;52.538;13.400;2023-05-27T14:03:58;21.60;54.30
2112;DHT22;1062;52.538;13.400;2023-05-27T14:06:24;21.60;54.40
2112;DHT22;1062;52.538;13.400;2023-05-27T14:08:50;21.50;54.70
2112;DHT22;1062;52.538;13.400;2023-05-27T14:11:17;21.20;54.80
2112;DHT22;1062;52.538;13.400;2023-05-27T14:13:43;21.30;56.00
2112;DHT22;1062;52.538;13.400;2023-05-27T14:16:08;21.30;55.90
2112;DHT22;1062;52.538;13.400;2023-05-27T14:18:34;21.10;56.10
2112;DHT22;1062;52.538;13.400;2023-05-27T14:21:00;21.30;56.80
2112;DHT22;1062;52.538;13.400;2023-05-27T14:23:25;21.40;57.00
2112;DHT22;1062;52.538;13.400;2023-05-27T14:25:51;21.40;57.50
2112;DHT22;1062;52.538;13.400;2023-05-27T14:28:16;21.30;57.00
2112;DHT22;1062;52.538;13.400;2023-05-27T14:30:42;21.30;57.10
2112;DHT22;1062;52.538;13.400;2023-05-27T14:33:08;21.30;56.70
2112;DHT22;1062;52.538;13.400;2023-05-27T14:35:37;21.20;57.00
2112;DHT22;1062;52.538;13.400;2023-05-27T14:38:04;21.20;56.70
2112;DHT22;1062;52.538;13.400;2023-05-27T14:40:30;21.10;57.80
2112;DHT22;1062;52.538;13.400;2023-05-27T14:42:56;21.30;56.60
2112;DHT22;1062;52.538;13.400;2023-05-27T14:45:22;21.30;57.30
2112;DHT22;1062;52.538;13.400;2023-05-27T14:47:48;21.20;56.80
2112;DHT22;1062;52.538;13.400;2023-05-27T14:50:17;21.20;57.30
2112;DHT22;1062;52.538;13.400;2023-05-27T14:52:43;21.30;56.90
2112;DHT22;1062;52.538;13.400;2023-05-27T14:55:09;21.20;56.30
2112;DHT22;1062;52.538;13.400;2023-05-27T14:57:35;21.10;57.00
2112;DHT22;1062;52.538;13.400;2023-05-27T15:00:05;21.00;56.50
2112;DHT22;1062;52.538;13.400;2023-05-27T15:02:31;21.20;56.10
2112;DHT22;1062;52.538;13.400;2023-05-27T15:04:57;21.20;56.30
2112;DHT22;1062;52.538;13.400;2023-05-27T15:07:23;21.30;55.90
2112;DHT22;1062;52.538;13.400;2023-05-27T15:09:48;21.30;56.40
2112;DHT22;1062;52.538;13.400;2023-05-27T15:12:14;21.20;55.40
2112;DHT22;1062;52.538;13.400;2023-05-27T15:14:40;21.20;55.80
2112;DHT22;1062;52.538;13.400;2023-05-27T15:17:06;21.10;55.70
2112;DHT22;1062;52.538;13.400;2023-05-27T15:19:36;21.10;55.90
2112;DHT22;1062;52.538;13.400;2023-05-27T15:22:02;21.10;55.30
2112;DHT22;1062;52.538;13.400;2023-05-27T15:24:28;21.20;55.40
2112;DHT22;1062;52.538;13.400;2023-05-27T15:26:54;21.30;56.00
2112;DHT22;1062;52.538;13.400;2023-05-27T15:29:20;21.20;55.90
2112;DHT22;1062;52.538;13.400;2023-05-27T15:31:47;21.30;56.10
2112;DHT22;1062;52.538;13.400;2023-05-27T15:34:12;21.30;56.00
2112;DHT22;1062;52.538;13.400;2023-05-27T15:36:38;21.40;53.50
2112;DHT22;1062;52.538;13.400;2023-05-27T15:39:03;21.30;52.80
2112;DHT22;1062;52.538;13.400;2023-05-27T15:41:31;21.20;52.70
2112;DHT22;1062;52.538;13.400;2023-05-27T15:43:57;21.20;52.50
2112;DHT22;1062;52.538;13.400;2023-05-27T15:46:23;21.30;52.40
2112;DHT22;1062;52.538;13.400;2023-05-27T15:48:48;21.40;53.10
2112;DHT22;1062;52.538;13.400;2023-05-27T15:51:14;21.20;52.00
2112;DHT22;1062;52.538;13.400;2023-05-27T15:53:40;21.20;52.70
2112;DHT22;1062;52.538;13.400;2023-05-27T15:56:05;21.10;52.10
2112;DHT22;1062;52.538;13.400;2023-05-27T15:58:31;21.10;52.00